Cortez, CO

1:03 AM MDT on August 20, 2014 (GMT -0600)
Kelly Place B&B, McElmo Canyon | Change Station
CLOSE
Current Station
Personal Weather Station
Location: Cortez, CO
Elevation: 5522 ft
Nearby Weather Stations
Active Advisory: Special Statement Active Notice: Public Information Statement

Elev 5522 ft 37.34 °N, 108.79 °W | Updated 3 minutes ago

Partly Cloudy
Partly Cloudy
63.7 °F
Feels Like 63.7 °F
N
0.0
Wind Variable Wind from East
Gusts 0.0 mph

Today
High -- | Low -- °F
--% Chance of Precip.
Yesterday
High -- | Low -- °F
Precip. -- in
6:35 AM 8:00 PM
Waning Crescent, 24% visible
Pressure 29.86 in
Visibility 10.0 miles
Clouds Few 8500 ft
Dew Point 56 °F
Humidity 75%
Rainfall 0.02 in
Snow Depth Not available.
UV 0 out of 12
Pollen 6.60 out of 12
Air Quality Not available.
Flu Activity Not available.
METAR KCEZ 200653Z AUTO 00000KT 10SM FEW085 15/14 A3008 RMK AO2 SLP109 T01500144 402830150 $

More Conditions Fewer Conditions

Pressure 29.86 in
Visibility 10.0 miles
Clouds Few 8500 ft
Dew Point 56 °F
Humidity 75%
Rainfall 0.02 in
Snow Depth Not available.
UV 0 out of 12
Pollen 6.60 out of 12
Air Quality Not available.
Flu Activity Not available.
METAR KCEZ 200653Z AUTO 00000KT 10SM FEW085 15/14 A3008 RMK AO2 SLP109 T01500144 402830150 $

More Conditions Fewer Conditions

10-Day Weather Forecast

Almanac

Astronomy

Aug. 20, 2014 Rise Set
Actual Time 6:35 AM MDT 8:00 PM MDT
Civil Twilight 6:08 AM MDT 8:27 PM MDT
Nautical Twilight 5:35 AM MDT 9:00 PM MDT
Astronomical Twilight 5:00 AM MDT 9:34 PM MDT
Moon 2:20 AM MDT 4:45 PM MDT
Length of Visible Light 14h 19m
Length of Day
13h 25m
Tomorrow will be 2m 11s shorter.
Waning Crescent, 24% of the Moon is Illuminated
Today
Waning Crescent
Aug 25
New
Sep 2
First Quarter
Sep 8
Full
Sep 15
Last Quarter

Today's Extremes

State Highs State Lows

Community

WunderPhotos

Upload Photos

1,745,592 photos uploaded!

Nearby

Snow Depth

Station Depth Elevation
Sharkstooth 0 in 10720 ft
Columbus Basin 0 in 10785 ft
Scotch Creek 0 in 9100 ft
Lone Cone 2 in 9600 ft
El Diente Peak 1 in 10200 ft

Earthquake Activity

City Distance Mag. Time & Date
No recent earthquake activity has been reported nearby.
Minimum magnitude displayed is 2.5.

Coastal Water Temperatures

Place Temperature
No Stations Reporting

Nearby Weather Stations